Terminal Aerodrome Forecast
Issued by NWS

Current Version | Previous Version | Text Only | Print | Product List | Glossary On
Versions: 1 2 3 4 5 6 7 8 9 10 11 12
000
FTUS45 KRIW 012300
TAFWRL
TAF
KWRL 012320Z 0200/0224 34012G20KT P6SM VCSH SCT040 BKN060
     FM020200 VRB06KT P6SM SCT060
     FM020600 VRB05KT P6SM SCT040 BKN050
     FM021400 33011KT P6SM SCT040 BKN050
     FM021800 33015G22KT P6SM SCT030 BKN070=

USA.gov is the U.S. government's official web portal to all federal, state and local government web resources and services.